Bretagne — FNBR — position and weather

sailwx.info

Track history (hours):
 
Tides and Currents Weather Stations Pressure Air Temp Water Temp Dewpoint Dewpoint Depression Visibility Wind Speed Wind Dir Waves Ship Positions

Bretagne

Operator: Brittany Ferries

Last reported at 2019-Apr-26 04:00 UTC. Time now 2019-Apr-26 04:15 UTC.
Position N 50°24' W 001°20'.

Length 151 m; beam 27 m.

Type: Ship. MMSI: 227286000.

Date/timePositionNaut miles runAvg speedWind from/ knotsBaromVisibWave heightAir tempDewpointWater temp
2019-Apr-26 04:00N 50°24' W 001°20'611.7
2019-Apr-26 03:30N 50°19' W 001°23'612.1
2019-Apr-26 03:00N 50°14' W 001°29'612.4
2019-Apr-26 02:30N 50°09' W 001°35'612.8
2019-Apr-26 02:00N 50°04' W 001°41'713.1
2019-Apr-26 01:30N 49°58' W 001°47'713.6
2019-Apr-26 01:00N 49°53' W 001°53'714.8
2019-Apr-26 00:30N 49°47' W 001°59'815.5
2019-Apr-25 23:59N 49°40' W 002°05'714.3
2019-Apr-25 23:31N 49°33' W 002°09'714.0
2019-Apr-25 23:00N 49°27' W 002°14'713.8
2019-Apr-25 22:30N 49°21' W 002°19'8 0.4
2019-Apr-25 03:09N 49°13' W 002°22'215.2
2019-Apr-25 03:00N 49°15' W 002°21'917.5
2019-Apr-25 02:30N 49°23' W 002°17'816.9
2019-Apr-25 02:00N 49°31' W 002°12'1415.8
2019-Apr-25 01:07N 49°44' W 002°02'213.6
2019-Apr-25 01:00N 49°45' W 002°01'613.1
2019-Apr-25 00:30N 49°50' W 001°55'713.2
2019-Apr-25 00:00N 49°56' W 001°49'613.0
2019-Apr-24 23:30N 50°01' W 001°43'713.4
2019-Apr-24 23:00N 50°07' W 001°38'713.5
2019-Apr-24 22:30N 50°13' W 001°33'713.8
2019-Apr-24 22:01N 50°18' W 001°27'714.1
2019-Apr-24 21:30N 50°24' W 001°20'714.6
2019-Apr-24 21:00N 50°30' W 001°14'714.8
2019-Apr-24 20:31N 50°36' W 001°07'611.8
2019-Apr-24 20:00N 50°41' W 001°02'510.9
2019-Apr-24 19:31N 50°46' W 001°06'2 4.5
2019-Apr-24 18:58N 50°49' W 001°06'0 0.0
2019-Apr-24 18:28N 50°49' W 001°06'0 0.0
2019-Apr-24 17:59N 50°49' W 001°06'0 0.0
2019-Apr-24 17:28N 50°49' W 001°06'0 0.0
2019-Apr-24 16:59N 50°49' W 001°06'0 0.0
2019-Apr-24 16:28N 50°49' W 001°06'0 0.0
2019-Apr-24 15:58N 50°49' W 001°06'0 0.0
2019-Apr-24 15:28N 50°49' W 001°06'0 0.0
2019-Apr-24 14:58N 50°49' W 001°06'0 0.0
2019-Apr-24 14:28N 50°49' W 001°06'0 0.0
2019-Apr-24 13:58N 50°49' W 001°06'0 0.0
2019-Apr-24 13:28N 50°49' W 001°06'0 0.0
2019-Apr-24 12:58N 50°49' W 001°06'0 0.0
2019-Apr-24 12:28N 50°49' W 001°06'0 0.0
2019-Apr-24 11:58N 50°49' W 001°06'0 0.0
2019-Apr-24 11:28N 50°49' W 001°06'0 0.0
2019-Apr-24 10:59N 50°49' W 001°06'0 0.0
2019-Apr-24 10:28N 50°49' W 001°06'0 0.0
2019-Apr-24 09:58N 50°49' W 001°06'0 0.0
2019-Apr-24 09:29N 50°49' W 001°06'0 0.0
2019-Apr-24 08:59N 50°49' W 001°06'0 0.0
2019-Apr-24 08:28N 50°49' W 001°06'0 0.0
2019-Apr-24 07:59N 50°49' W 001°06'0 0.0
2019-Apr-24 07:29N 50°49' W 001°06'0 0.0
2019-Apr-24 06:59N 50°49' W 001°06'0 0.8
2019-Apr-24 06:31N 50°49' W 001°06'510.2
2019-Apr-24 06:01N 50°44' W 001°04'612.0
2019-Apr-24 05:31N 50°38' W 001°05'713.3
2019-Apr-24 05:00N 50°32' W 001°11'713.7
2019-Apr-24 04:30N 50°27' W 001°17'713.4
2019-Apr-24 04:00N 50°21' W 001°24'713.2
2019-Apr-24 03:30N 50°16' W 001°30'510.3
2019-Apr-24 03:00N 50°12' W 001°35'611.9
2019-Apr-24 02:30N 50°08' W 001°41'815.3
2019-Apr-24 02:00N 50°01' W 001°47'714.6
2019-Apr-24 01:30N 49°55' W 001°53'612.2
2019-Apr-24 01:00N 49°50' W 001°58'1113.1
2019-Apr-24 00:11N 49°40' W 002°06'213.2
2019-Apr-23 23:59N 49°38' W 002°07'613.1
2019-Apr-23 23:30N 49°32' W 002°11'714.0
2019-Apr-23 23:00N 49°25' W 002°15'713.7
2019-Apr-23 22:30N 49°19' W 002°20'43 2.6
2019-Apr-23 06:03N 48°38' W 002°02'1013.0
2019-Apr-23 05:18N 48°47' W 002°09'1117.1
2019-Apr-23 04:39N 48°54' W 002°22'516.1
2019-Apr-23 04:21N 48°59' W 002°22'1513.4
2019-Apr-23 03:15N 49°14' W 002°22'313.9
2019-Apr-23 03:01N 49°17' W 002°21'713.9
2019-Apr-23 02:30N 49°23' W 002°17'815.6
2019-Apr-23 02:00N 49°30' W 002°12'917.6
2019-Apr-23 01:30N 49°39' W 002°06'917.9
2019-Apr-23 01:01N 49°46' W 001°59'815.1
2019-Apr-23 00:31N 49°52' W 001°52'815.1
2019-Apr-23 00:01N 49°59' W 001°47'714.2
2019-Apr-22 23:30N 50°05' W 001°40'713.9
2019-Apr-22 23:00N 50°10' W 001°34'713.7
2019-Apr-22 22:30N 50°16' W 001°27'713.6
2019-Apr-22 22:00N 50°21' W 001°20'713.7
2019-Apr-22 21:30N 50°26' W 001°14'713.4
2019-Apr-22 21:00N 50°32' W 001°08'713.2
2019-Apr-22 20:30N 50°37' W 001°01'612.3
2019-Apr-22 20:01N 50°43' W 000°59'713.4
2019-Apr-22 19:30N 50°48' W 001°07'1 2.4
2019-Apr-22 18:59N 50°49' W 001°06'0 0.0
2019-Apr-22 18:29N 50°49' W 001°06'0 0.0
2019-Apr-22 17:59N 50°49' W 001°06'0 0.0
2019-Apr-22 17:29N 50°49' W 001°06'1 1.3
2019-Apr-22 17:00N 50°49' W 001°07'611.0
2019-Apr-22 16:31N 50°43' W 001°03'611.4
2019-Apr-22 16:00N 50°38' W 001°06'713.2
2019-Apr-22 15:30N 50°32' W 001°11'715.0
2019-Apr-22 15:01N 50°25' W 001°16'714.5
2019-Apr-22 14:30N 50°19' W 001°22'815.7
2019-Apr-22 14:01N 50°12' W 001°27'917.5
2019-Apr-22 13:31N 50°04' W 001°32'918.9
2019-Apr-22 13:00N 49°57' W 001°41'1019.3
2019-Apr-22 12:31N 49°50' W 001°52'1019.4
2019-Apr-22 11:59N 49°42' W 002°01'1020.1
2019-Apr-22 11:31N 49°32' W 002°03'1020.4
2019-Apr-22 11:00N 49°22' W 002°04'1119.2
2019-Apr-22 10:25N 49°12' W 001°56'3118.4
2019-Apr-22 08:43N 48°41' W 002°02'2 2.3
2019-Apr-22 07:39N 48°38' W 002°02'0 0.0
2019-Apr-22 07:30N 48°38' W 002°02'0 0.0
2019-Apr-22 06:36N 48°38' W 002°02'0 0.1
2019-Apr-22 06:03N 48°38' W 002°02'0 0.9
2019-Apr-22 06:01N 48°38' W 002°02'713.1
2019-Apr-22 05:30N 48°44' W 002°08'816.0
2019-Apr-22 05:00N 48°50' W 002°15'1415.1
2019-Apr-22 04:03N 49°04' W 002°23'412.9
2019-Apr-22 03:45N 49°07' W 002°23'413.1
2019-Apr-22 03:27N 49°11' W 002°23'613.5
2019-Apr-22 03:00N 49°17' W 002°21'714.2
2019-Apr-22 02:30N 49°24' W 002°16'714.0
2019-Apr-22 02:00N 49°30' W 002°12'714.2
2019-Apr-22 01:30N 49°37' W 002°07'815.9
2019-Apr-22 01:00N 49°44' W 002°02'816.0
2019-Apr-22 00:31N 49°50' W 001°55'815.5
2019-Apr-22 00:01N 49°57' W 001°49'714.7
2019-Apr-21 23:31N 50°03' W 001°43'714.0
2019-Apr-21 23:01N 50°09' W 001°37'714.0
2019-Apr-21 22:30N 50°15' W 001°31'713.7
2019-Apr-21 22:00N 50°21' W 001°25'713.7
2019-Apr-21 21:30N 50°26' W 001°19'713.2
2019-Apr-21 21:00N 50°31' W 001°13'612.8
2019-Apr-21 20:30N 50°37' W 001°07'510.6
2019-Apr-21 20:01N 50°41' W 001°03'612.8
2019-Apr-21 19:31N 50°47' W 001°06'2 3.0
2019-Apr-21 18:58N 50°49' W 001°06'0 0.0
2019-Apr-21 18:28N 50°49' W 001°06'0 0.0
2019-Apr-21 17:58N 50°49' W 001°06'0 0.0
2019-Apr-21 17:28N 50°49' W 001°06'1 1.2
2019-Apr-21 17:01N 50°49' W 001°07'611.2
2019-Apr-21 16:30N 50°43' W 001°03'611.4
2019-Apr-21 16:00N 50°38' W 001°06'713.8
2019-Apr-21 15:31N 50°32' W 001°12'714.2
2019-Apr-21 15:00N 50°26' W 001°18'816.1
2019-Apr-21 14:30N 50°19' W 001°24'917.6
2019-Apr-21 14:00N 50°11' W 001°28'917.3
2019-Apr-21 13:30N 50°04' W 001°36'917.7
2019-Apr-21 13:01N 49°57' W 001°44'918.1
2019-Apr-21 12:30N 49°50' W 001°54'817.0
2019-Apr-21 12:00N 49°43' W 002°01'918.4
2019-Apr-21 11:30N 49°34' W 002°03'1019.8
2019-Apr-21 11:00N 49°24' W 002°04'1018.9
2019-Apr-21 10:30N 49°15' W 002°00'1020.5
2019-Apr-21 10:00N 49°06' W 001°52'917.8
2019-Apr-21 09:30N 48°57' W 001°55'1019.3
2019-Apr-21 09:00N 48°48' W 002°01'917.9
2019-Apr-21 08:31N 48°40' W 002°02'1 1.9
2019-Apr-21 07:55N 48°38' W 002°02'0 0.0
2019-Apr-21 07:25N 48°38' W 002°02'0 0.0
2019-Apr-21 06:58N 48°38' W 002°02'0 0.0
2019-Apr-21 06:28N 48°38' W 002°02'0 0.1
2019-Apr-21 06:00N 48°38' W 002°02'713.4
2019-Apr-21 05:31N 48°44' W 002°08'714.2
2019-Apr-21 05:00N 48°49' W 002°14'815.0
2019-Apr-21 04:30N 48°55' W 002°21'714.3
2019-Apr-21 04:00N 49°03' W 002°22'714.0
2019-Apr-21 03:30N 49°10' W 002°22'714.3
2019-Apr-21 03:00N 49°17' W 002°21'714.4
2019-Apr-21 02:30N 49°23' W 002°17'714.6
2019-Apr-21 02:00N 49°30' W 002°11'815.2
2019-Apr-21 01:30N 49°37' W 002°07'917.1
2019-Apr-21 01:00N 49°45' W 002°02'714.2
2019-Apr-21 00:30N 49°51' W 001°57'612.1
2019-Apr-21 00:01N 49°56' W 001°52'815.0
2019-Apr-20 23:30N 50°02' W 001°46'715.0
2019-Apr-20 23:00N 50°08' W 001°38'714.7
2019-Apr-20 22:30N 50°14' W 001°32'714.3
2019-Apr-20 22:00N 50°20' W 001°25'714.0
2019-Apr-20 21:30N 50°26' W 001°19'713.4
2019-Apr-20 21:00N 50°31' W 001°13'611.8
2019-Apr-20 20:30N 50°36' W 001°07'611.1
2019-Apr-20 20:01N 50°41' W 001°03'713.2
2019-Apr-20 19:30N 50°47' W 001°06'2 3.5
2019-Apr-20 19:00N 50°49' W 001°06'0 0.0
2019-Apr-20 18:30N 50°49' W 001°06'0 0.0
2019-Apr-20 18:00N 50°49' W 001°06'0 0.1
2019-Apr-20 17:30N 50°49' W 001°06'4 8.5
2019-Apr-20 17:00N 50°45' W 001°05'713.1
2019-Apr-20 16:30N 50°39' W 000°60'816.9
2019-Apr-20 16:00N 50°33' W 001°09'816.7
2019-Apr-20 15:30N 50°26' W 001°18'816.9
2019-Apr-20 15:00N 50°20' W 001°26'816.9
2019-Apr-20 14:30N 50°12' W 001°32'816.4
2019-Apr-20 14:00N 50°05' W 001°39'816.2
2019-Apr-20 13:30N 49°59' W 001°46'816.5
2019-Apr-20 13:01N 49°52' W 001°54'815.9
2019-Apr-20 12:30N 49°46' W 002°01'713.9
2019-Apr-20 12:00N 49°39' W 002°05'917.4
2019-Apr-20 11:30N 49°31' W 002°10'918.8
2019-Apr-20 11:01N 49°23' W 002°16'1018.9
2019-Apr-20 10:30N 49°13' W 002°21'1020.3
2019-Apr-20 10:01N 49°04' W 002°22'1020.5
2019-Apr-20 09:31N 48°54' W 002°19'1020.6
2019-Apr-20 09:01N 48°45' W 002°10'816.9
2019-Apr-20 08:30N 48°38' W 002°02'0 0.1
2019-Apr-20 08:00N 48°38' W 002°02'0 0.0
2019-Apr-20 07:30N 48°38' W 002°02'0 0.0
2019-Apr-20 07:00N 48°38' W 002°02'0 0.0
2019-Apr-20 06:30N 48°38' W 002°02'0 0.2
2019-Apr-20 06:01N 48°38' W 002°02'713.3
2019-Apr-20 05:30N 48°44' W 002°07'816.2
2019-Apr-20 05:00N 48°50' W 002°16'816.1
2019-Apr-20 04:30N 48°57' W 002°22'713.4
2019-Apr-20 04:00N 49°04' W 002°23'1013.9
2019-Apr-20 03:17N 49°14' W 002°22'413.3
2019-Apr-20 03:00N 49°17' W 002°22'713.3
2019-Apr-20 02:31N 49°23' W 002°17'713.9
2019-Apr-20 02:00N 49°29' W 002°11'714.5
2019-Apr-20 01:30N 49°35' W 002°06'1019.9
2019-Apr-20 01:01N 49°45' W 002°00'918.7
2019-Apr-20 00:31N 49°52' W 001°52'917.2
2019-Apr-20 00:01N 49°60' W 001°45'816.4
2019-Apr-19 23:31N 50°06' W 001°38'815.6
2019-Apr-19 23:01N 50°12' W 001°30'715.0
2019-Apr-19 22:30N 50°19' W 001°24'815.0
2019-Apr-19 22:01N 50°26' W 001°19'714.1
2019-Apr-19 21:30N 50°31' W 001°13'713.2
2019-Apr-19 21:00N 50°37' W 001°07'611.8
2019-Apr-19 20:30N 50°42' W 001°03'612.9
2019-Apr-19 20:01N 50°48' W 001°07'1 2.1
2019-Apr-19 19:31N 50°49' W 001°06'0 0.0
2019-Apr-19 19:00N 50°49' W 001°06'0 0.0
2019-Apr-19 18:30N 50°49' W 001°06'0 0.0
2019-Apr-19 18:00N 50°49' W 001°06'1 1.8
2019-Apr-19 17:30N 50°48' W 001°07'5 9.5
2019-Apr-19 17:01N 50°44' W 001°04'612.9
2019-Apr-19 16:30N 50°38' W 001°00'917.8
2019-Apr-19 16:00N 50°32' W 001°10'917.7
2019-Apr-19 15:31N 50°25' W 001°19'917.4
2019-Apr-19 15:00N 50°17' W 001°27'816.5
2019-Apr-19 14:30N 50°11' W 001°35'815.9
2019-Apr-19 14:01N 50°05' W 001°43'816.0
2019-Apr-19 13:31N 49°59' W 001°50'815.9
2019-Apr-19 13:00N 49°52' W 001°57'815.8
2019-Apr-19 12:31N 49°45' W 002°01'713.0
2019-Apr-19 12:00N 49°38' W 002°04'816.6
2019-Apr-19 11:31N 49°31' W 002°10'918.1
2019-Apr-19 11:00N 49°23' W 002°16'918.0
2019-Apr-19 10:31N 49°14' W 002°21'1020.0
2019-Apr-19 10:01N 49°04' W 002°22'1020.6
2019-Apr-19 09:30N 48°54' W 002°20'1121.2
2019-Apr-19 09:01N 48°46' W 002°10'917.8
2019-Apr-19 08:30N 48°38' W 002°02'0 0.2
2019-Apr-19 07:53N 48°38' W 002°02'0 0.0
2019-Apr-19 06:47N 48°38' W 002°02'0 0.0
2019-Apr-19 06:05N 48°38' W 002°02'0 0.4
2019-Apr-19 05:57N 48°38' W 002°02'1114.5
2019-Apr-19 05:12N 48°48' W 002°11'317.1
2019-Apr-19 05:00N 48°50' W 002°15'1116.0
2019-Apr-19 04:18N 48°59' W 002°24'415.6
2019-Apr-19 04:01N 49°04' W 002°23'815.7
2019-Apr-19 03:31N 49°12' W 002°22'713.6
2019-Apr-19 03:00N 49°18' W 002°20'713.0
2019-Apr-19 02:30N 49°24' W 002°16'713.9
2019-Apr-19 02:00N 49°30' W 002°11'714.6
2019-Apr-19 01:30N 49°37' W 002°06'817.0
2019-Apr-19 01:00N 49°45' W 002°01'917.2
2019-Apr-19 00:30N 49°52' W 001°55'917.8
2019-Apr-19 00:00N 49°60' W 001°47'816.9
2019-Apr-18 23:30N 50°07' W 001°41'816.5
2019-Apr-18 23:00N 50°14' W 001°34'816.3
2019-Apr-18 22:30N 50°20' W 001°25'815.6
2019-Apr-18 22:00N 50°27' W 001°18'714.8
2019-Apr-18 21:30N 50°33' W 001°12'713.6
2019-Apr-18 21:01N 50°38' W 001°06'611.4
2019-Apr-18 20:30N 50°44' W 001°04'510.0
2019-Apr-18 20:01N 50°49' W 001°06'0 0.3
2019-Apr-18 19:28N 50°49' W 001°06'0 0.0
2019-Apr-18 18:58N 50°49' W 001°06'0 0.0
2019-Apr-18 18:28N 50°49' W 001°06'0 0.0
2019-Apr-18 17:58N 50°49' W 001°06'1 1.5
2019-Apr-18 17:31N 50°48' W 001°07'612.2
2019-Apr-18 17:01N 50°43' W 001°01'713.1
2019-Apr-18 16:31N 50°37' W 001°03'918.9
2019-Apr-18 16:01N 50°31' W 001°14'918.2
2019-Apr-18 15:30N 50°25' W 001°24'917.8
2019-Apr-18 15:00N 50°18' W 001°33'917.3
2019-Apr-18 14:31N 50°10' W 001°41'816.6
2019-Apr-18 14:00N 50°03' W 001°47'816.3
2019-Apr-18 13:31N 49°56' W 001°53'815.8
2019-Apr-18 13:00N 49°49' W 001°59'714.2
2019-Apr-18 12:30N 49°42' W 002°01'714.2
2019-Apr-18 12:00N 49°36' W 002°05'816.4
2019-Apr-18 11:30N 49°29' W 002°12'917.2
2019-Apr-18 11:00N 49°21' W 002°18'1117.6
2019-Apr-18 10:25N 49°11' W 002°23'819.8
2019-Apr-18 10:00N 49°03' W 002°22'2019.5
2019-Apr-18 08:59N 48°45' W 002°09'8 7.8
2019-Apr-18 07:58N 48°38' W 002°02'0 0.0
2019-Apr-18 06:43N 48°38' W 002°02'0 0.1
2019-Apr-18 06:03N 48°38' W 002°02'0 0.8
2019-Apr-18 06:00N 48°38' W 002°02'1015.1
2019-Apr-18 05:22N 48°47' W 002°09'1813.3
2019-Apr-18 04:03N 49°02' W 002°23'812.9
2019-Apr-18 03:27N 49°09' W 002°23'612.8
2019-Apr-18 03:01N 49°15' W 002°22'612.0
2019-Apr-18 02:30N 49°21' W 002°19'612.9
2019-Apr-18 02:01N 49°26' W 002°14'713.7
2019-Apr-18 01:30N 49°32' W 002°09'714.4
2019-Apr-18 01:00N 49°39' W 002°04'816.5
2019-Apr-18 00:30N 49°46' W 001°59'714.4
2019-Apr-18 00:00N 49°52' W 001°53'713.9
2019-Apr-17 23:31N 49°58' W 001°47'815.6
2019-Apr-17 23:00N 50°05' W 001°41'816.3
2019-Apr-17 22:30N 50°12' W 001°35'816.0
2019-Apr-17 22:00N 50°19' W 001°28'815.5
2019-Apr-17 21:30N 50°25' W 001°21'714.8
2019-Apr-17 21:00N 50°31' W 001°13'714.2
2019-Apr-17 20:30N 50°37' W 001°07'612.0
2019-Apr-17 20:00N 50°42' W 001°03'612.8
2019-Apr-17 19:30N 50°48' W 001°07'1 2.1
2019-Apr-17 18:59N 50°49' W 001°06'0 0.0
2019-Apr-17 18:29N 50°49' W 001°06'0 0.0
2019-Apr-17 17:59N 50°49' W 001°06'0 0.0
2019-Apr-17 17:30N 50°49' W 001°06'0 0.0
2019-Apr-17 17:00N 50°49' W 001°06'0 0.0
2019-Apr-17 16:27N 50°49' W 001°06'0 0.0
2019-Apr-17 16:00N 50°49' W 001°06'0 0.0
2019-Apr-17 15:27N 50°49' W 001°06'0 0.0
2019-Apr-17 15:00N 50°49' W 001°06'0 0.0
2019-Apr-17 14:30N 50°49' W 001°06'0 0.0
2019-Apr-17 14:01N 50°49' W 001°06'0 0.0
2019-Apr-17 13:27N 50°49' W 001°06'0 0.0
2019-Apr-17 13:00N 50°49' W 001°06'0 0.0
2019-Apr-17 12:30N 50°49' W 001°06'0 0.0
2019-Apr-17 12:00N 50°49' W 001°06'0 0.0
2019-Apr-17 11:28N 50°49' W 001°06'0 0.0
2019-Apr-17 10:58N 50°49' W 001°06'0 0.0
2019-Apr-17 10:28N 50°49' W 001°06'0 0.0
2019-Apr-17 09:58N 50°49' W 001°06'0 0.0
2019-Apr-17 09:28N 50°49' W 001°06'0 0.0
2019-Apr-17 08:58N 50°49' W 001°06'0 0.0
2019-Apr-17 08:28N 50°49' W 001°06'0 0.0
2019-Apr-17 07:59N 50°49' W 001°06'0 0.0
2019-Apr-17 07:28N 50°49' W 001°06'0 0.0
2019-Apr-17 06:59N 50°49' W 001°06'1 1.2
2019-Apr-17 06:30N 50°49' W 001°07'611.0
2019-Apr-17 06:00N 50°43' W 001°03'612.3
2019-Apr-17 05:30N 50°38' W 001°07'612.1
2019-Apr-17 05:00N 50°33' W 001°12'611.4
2019-Apr-17 04:30N 50°28' W 001°17'611.2
2019-Apr-17 04:00N 50°23' W 001°22'611.4
2019-Apr-17 03:30N 50°19' W 001°28'611.4
2019-Apr-17 03:00N 50°14' W 001°33'510.8
2019-Apr-17 02:30N 50°10' W 001°38'612.6
2019-Apr-17 02:00N 50°05' W 001°44'713.9
2019-Apr-17 01:30N 49°59' W 001°49'713.5
2019-Apr-17 01:00N 49°53' W 001°54'612.8
2019-Apr-17 00:30N 49°47' W 001°59'611.2
2019-Apr-17 00:00N 49°42' W 002°03'611.6
2019-Apr-16 23:30N 49°37' W 002°06'713.2
2019-Apr-16 23:00N 49°31' W 002°11'713.9
2019-Apr-16 22:30N 49°25' W 002°16'713.6
2019-Apr-16 22:00N 49°19' W 002°21'1211.3
2019-Apr-16 20:59N 49°07' W 002°23'1312.8
2019-Apr-16 19:59N 48°55' W 002°22'1313.0
2019-Apr-16 18:57N 48°44' W 002°09'7 1.2
2019-Apr-16 12:43N 48°38' W 002°02'  
Track history (hours):
 
Tides and Currents Weather Stations Pressure Air Temp Water Temp Dewpoint Dewpoint Depression Visibility Wind Speed Wind Dir Waves Ship Positions

Bretagne

Operator: Brittany Ferries

Last reported at 2019-Apr-26 04:00 UTC. Time now 2019-Apr-26 04:15 UTC.
Position N 50°24' W 001°20'.

Length 151 m; beam 27 m.

Type: Ship. MMSI: 227286000.

Date/timePositionNaut miles runAvg speedWind from/ knotsBaromVisibWave heightAir tempDewpointWater temp
2019-Apr-26 04:00N 50°24' W 001°20'611.7
2019-Apr-26 03:30N 50°19' W 001°23'612.1
2019-Apr-26 03:00N 50°14' W 001°29'612.4
2019-Apr-26 02:30N 50°09' W 001°35'612.8
2019-Apr-26 02:00N 50°04' W 001°41'713.1
2019-Apr-26 01:30N 49°58' W 001°47'713.6
2019-Apr-26 01:00N 49°53' W 001°53'714.8
2019-Apr-26 00:30N 49°47' W 001°59'815.5
2019-Apr-25 23:59N 49°40' W 002°05'714.3
2019-Apr-25 23:31N 49°33' W 002°09'714.0
2019-Apr-25 23:00N 49°27' W 002°14'713.8
2019-Apr-25 22:30N 49°21' W 002°19'8 0.4
2019-Apr-25 03:09N 49°13' W 002°22'215.2
2019-Apr-25 03:00N 49°15' W 002°21'917.5
2019-Apr-25 02:30N 49°23' W 002°17'816.9
2019-Apr-25 02:00N 49°31' W 002°12'1415.8
2019-Apr-25 01:07N 49°44' W 002°02'213.6
2019-Apr-25 01:00N 49°45' W 002°01'613.1
2019-Apr-25 00:30N 49°50' W 001°55'713.2
2019-Apr-25 00:00N 49°56' W 001°49'613.0
2019-Apr-24 23:30N 50°01' W 001°43'713.4
2019-Apr-24 23:00N 50°07' W 001°38'713.5
2019-Apr-24 22:30N 50°13' W 001°33'713.8
2019-Apr-24 22:01N 50°18' W 001°27'714.1
2019-Apr-24 21:30N 50°24' W 001°20'714.6
2019-Apr-24 21:00N 50°30' W 001°14'714.8
2019-Apr-24 20:31N 50°36' W 001°07'611.8
2019-Apr-24 20:00N 50°41' W 001°02'510.9
2019-Apr-24 19:31N 50°46' W 001°06'2 4.5
2019-Apr-24 18:58N 50°49' W 001°06'0 0.0
2019-Apr-24 18:28N 50°49' W 001°06'0 0.0
2019-Apr-24 17:59N 50°49' W 001°06'0 0.0
2019-Apr-24 17:28N 50°49' W 001°06'0 0.0
2019-Apr-24 16:59N 50°49' W 001°06'0 0.0
2019-Apr-24 16:28N 50°49' W 001°06'0 0.0
2019-Apr-24 15:58N 50°49' W 001°06'0 0.0
2019-Apr-24 15:28N 50°49' W 001°06'0 0.0
2019-Apr-24 14:58N 50°49' W 001°06'0 0.0
2019-Apr-24 14:28N 50°49' W 001°06'0 0.0
2019-Apr-24 13:58N 50°49' W 001°06'0 0.0
2019-Apr-24 13:28N 50°49' W 001°06'0 0.0
2019-Apr-24 12:58N 50°49' W 001°06'0 0.0
2019-Apr-24 12:28N 50°49' W 001°06'0 0.0
2019-Apr-24 11:58N 50°49' W 001°06'0 0.0
2019-Apr-24 11:28N 50°49' W 001°06'0 0.0
2019-Apr-24 10:59N 50°49' W 001°06'0 0.0
2019-Apr-24 10:28N 50°49' W 001°06'0 0.0
2019-Apr-24 09:58N 50°49' W 001°06'0 0.0
2019-Apr-24 09:29N 50°49' W 001°06'0 0.0
2019-Apr-24 08:59N 50°49' W 001°06'0 0.0
2019-Apr-24 08:28N 50°49' W 001°06'0 0.0
2019-Apr-24 07:59N 50°49' W 001°06'0 0.0
2019-Apr-24 07:29N 50°49' W 001°06'0 0.0
2019-Apr-24 06:59N 50°49' W 001°06'0 0.8
2019-Apr-24 06:31N 50°49' W 001°06'510.2
2019-Apr-24 06:01N 50°44' W 001°04'612.0
2019-Apr-24 05:31N 50°38' W 001°05'713.3
2019-Apr-24 05:00N 50°32' W 001°11'713.7
2019-Apr-24 04:30N 50°27' W 001°17'713.4
2019-Apr-24 04:00N 50°21' W 001°24'713.2
2019-Apr-24 03:30N 50°16' W 001°30'510.3
2019-Apr-24 03:00N 50°12' W 001°35'611.9
2019-Apr-24 02:30N 50°08' W 001°41'815.3
2019-Apr-24 02:00N 50°01' W 001°47'714.6
2019-Apr-24 01:30N 49°55' W 001°53'612.2
2019-Apr-24 01:00N 49°50' W 001°58'1113.1
2019-Apr-24 00:11N 49°40' W 002°06'213.2
2019-Apr-23 23:59N 49°38' W 002°07'613.1
2019-Apr-23 23:30N 49°32' W 002°11'714.0
2019-Apr-23 23:00N 49°25' W 002°15'713.7
2019-Apr-23 22:30N 49°19' W 002°20'43 2.6
2019-Apr-23 06:03N 48°38' W 002°02'1013.0
2019-Apr-23 05:18N 48°47' W 002°09'1117.1
2019-Apr-23 04:39N 48°54' W 002°22'516.1
2019-Apr-23 04:21N 48°59' W 002°22'1513.4
2019-Apr-23 03:15N 49°14' W 002°22'313.9
2019-Apr-23 03:01N 49°17' W 002°21'713.9
2019-Apr-23 02:30N 49°23' W 002°17'815.6
2019-Apr-23 02:00N 49°30' W 002°12'917.6
2019-Apr-23 01:30N 49°39' W 002°06'917.9
2019-Apr-23 01:01N 49°46' W 001°59'815.1
2019-Apr-23 00:31N 49°52' W 001°52'815.1
2019-Apr-23 00:01N 49°59' W 001°47'714.2
2019-Apr-22 23:30N 50°05' W 001°40'713.9
2019-Apr-22 23:00N 50°10' W 001°34'713.7
2019-Apr-22 22:30N 50°16' W 001°27'713.6
2019-Apr-22 22:00N 50°21' W 001°20'713.7
2019-Apr-22 21:30N 50°26' W 001°14'713.4
2019-Apr-22 21:00N 50°32' W 001°08'713.2
2019-Apr-22 20:30N 50°37' W 001°01'612.3
2019-Apr-22 20:01N 50°43' W 000°59'713.4
2019-Apr-22 19:30N 50°48' W 001°07'1 2.4
2019-Apr-22 18:59N 50°49' W 001°06'0 0.0
2019-Apr-22 18:29N 50°49' W 001°06'0 0.0
2019-Apr-22 17:59N 50°49' W 001°06'0 0.0
2019-Apr-22 17:29N 50°49' W 001°06'1 1.3
2019-Apr-22 17:00N 50°49' W 001°07'611.0
2019-Apr-22 16:31N 50°43' W 001°03'611.4
2019-Apr-22 16:00N 50°38' W 001°06'713.2
2019-Apr-22 15:30N 50°32' W 001°11'715.0
2019-Apr-22 15:01N 50°25' W 001°16'714.5
2019-Apr-22 14:30N 50°19' W 001°22'815.7
2019-Apr-22 14:01N 50°12' W 001°27'917.5
2019-Apr-22 13:31N 50°04' W 001°32'918.9
2019-Apr-22 13:00N 49°57' W 001°41'1019.3
2019-Apr-22 12:31N 49°50' W 001°52'1019.4
2019-Apr-22 11:59N 49°42' W 002°01'1020.1
2019-Apr-22 11:31N 49°32' W 002°03'1020.4
2019-Apr-22 11:00N 49°22' W 002°04'1119.2
2019-Apr-22 10:25N 49°12' W 001°56'3118.4
2019-Apr-22 08:43N 48°41' W 002°02'2 2.3
2019-Apr-22 07:39N 48°38' W 002°02'0 0.0
2019-Apr-22 07:30N 48°38' W 002°02'0 0.0
2019-Apr-22 06:36N 48°38' W 002°02'0 0.1
2019-Apr-22 06:03N 48°38' W 002°02'0 0.9
2019-Apr-22 06:01N 48°38' W 002°02'713.1
2019-Apr-22 05:30N 48°44' W 002°08'816.0
2019-Apr-22 05:00N 48°50' W 002°15'1415.1
2019-Apr-22 04:03N 49°04' W 002°23'412.9
2019-Apr-22 03:45N 49°07' W 002°23'413.1
2019-Apr-22 03:27N 49°11' W 002°23'613.5
2019-Apr-22 03:00N 49°17' W 002°21'714.2
2019-Apr-22 02:30N 49°24' W 002°16'714.0
2019-Apr-22 02:00N 49°30' W 002°12'714.2
2019-Apr-22 01:30N 49°37' W 002°07'815.9
2019-Apr-22 01:00N 49°44' W 002°02'816.0
2019-Apr-22 00:31N 49°50' W 001°55'815.5
2019-Apr-22 00:01N 49°57' W 001°49'714.7
2019-Apr-21 23:31N 50°03' W 001°43'714.0
2019-Apr-21 23:01N 50°09' W 001°37'714.0
2019-Apr-21 22:30N 50°15' W 001°31'713.7
2019-Apr-21 22:00N 50°21' W 001°25'713.7
2019-Apr-21 21:30N 50°26' W 001°19'713.2
2019-Apr-21 21:00N 50°31' W 001°13'612.8
2019-Apr-21 20:30N 50°37' W 001°07'510.6
2019-Apr-21 20:01N 50°41' W 001°03'612.8
2019-Apr-21 19:31N 50°47' W 001°06'2 3.0
2019-Apr-21 18:58N 50°49' W 001°06'0 0.0
2019-Apr-21 18:28N 50°49' W 001°06'0 0.0
2019-Apr-21 17:58N 50°49' W 001°06'0 0.0
2019-Apr-21 17:28N 50°49' W 001°06'1 1.2
2019-Apr-21 17:01N 50°49' W 001°07'611.2
2019-Apr-21 16:30N 50°43' W 001°03'611.4
2019-Apr-21 16:00N 50°38' W 001°06'713.8
2019-Apr-21 15:31N 50°32' W 001°12'714.2
2019-Apr-21 15:00N 50°26' W 001°18'816.1
2019-Apr-21 14:30N 50°19' W 001°24'917.6
2019-Apr-21 14:00N 50°11' W 001°28'917.3
2019-Apr-21 13:30N 50°04' W 001°36'917.7
2019-Apr-21 13:01N 49°57' W 001°44'918.1
2019-Apr-21 12:30N 49°50' W 001°54'817.0
2019-Apr-21 12:00N 49°43' W 002°01'918.4
2019-Apr-21 11:30N 49°34' W 002°03'1019.8
2019-Apr-21 11:00N 49°24' W 002°04'1018.9
2019-Apr-21 10:30N 49°15' W 002°00'1020.5
2019-Apr-21 10:00N 49°06' W 001°52'917.8
2019-Apr-21 09:30N 48°57' W 001°55'1019.3
2019-Apr-21 09:00N 48°48' W 002°01'917.9
2019-Apr-21 08:31N 48°40' W 002°02'1 1.9
2019-Apr-21 07:55N 48°38' W 002°02'0 0.0
2019-Apr-21 07:25N 48°38' W 002°02'0 0.0
2019-Apr-21 06:58N 48°38' W 002°02'0 0.0
2019-Apr-21 06:28N 48°38' W 002°02'0 0.1
2019-Apr-21 06:00N 48°38' W 002°02'713.4
2019-Apr-21 05:31N 48°44' W 002°08'714.2
2019-Apr-21 05:00N 48°49' W 002°14'815.0
2019-Apr-21 04:30N 48°55' W 002°21'714.3
2019-Apr-21 04:00N 49°03' W 002°22'714.0
2019-Apr-21 03:30N 49°10' W 002°22'714.3
2019-Apr-21 03:00N 49°17' W 002°21'714.4
2019-Apr-21 02:30N 49°23' W 002°17'714.6
2019-Apr-21 02:00N 49°30' W 002°11'815.2
2019-Apr-21 01:30N 49°37' W 002°07'917.1
2019-Apr-21 01:00N 49°45' W 002°02'714.2
2019-Apr-21 00:30N 49°51' W 001°57'612.1
2019-Apr-21 00:01N 49°56' W 001°52'815.0
2019-Apr-20 23:30N 50°02' W 001°46'715.0
2019-Apr-20 23:00N 50°08' W 001°38'714.7
2019-Apr-20 22:30N 50°14' W 001°32'714.3
2019-Apr-20 22:00N 50°20' W 001°25'714.0
2019-Apr-20 21:30N 50°26' W 001°19'713.4
2019-Apr-20 21:00N 50°31' W 001°13'611.8
2019-Apr-20 20:30N 50°36' W 001°07'611.1
2019-Apr-20 20:01N 50°41' W 001°03'713.2
2019-Apr-20 19:30N 50°47' W 001°06'2 3.5
2019-Apr-20 19:00N 50°49' W 001°06'0 0.0
2019-Apr-20 18:30N 50°49' W 001°06'0 0.0
2019-Apr-20 18:00N 50°49' W 001°06'0 0.1
2019-Apr-20 17:30N 50°49' W 001°06'4 8.5
2019-Apr-20 17:00N 50°45' W 001°05'713.1
2019-Apr-20 16:30N 50°39' W 000°60'816.9
2019-Apr-20 16:00N 50°33' W 001°09'816.7
2019-Apr-20 15:30N 50°26' W 001°18'816.9
2019-Apr-20 15:00N 50°20' W 001°26'816.9
2019-Apr-20 14:30N 50°12' W 001°32'816.4
2019-Apr-20 14:00N 50°05' W 001°39'816.2
2019-Apr-20 13:30N 49°59' W 001°46'816.5
2019-Apr-20 13:01N 49°52' W 001°54'815.9
2019-Apr-20 12:30N 49°46' W 002°01'713.9
2019-Apr-20 12:00N 49°39' W 002°05'917.4
2019-Apr-20 11:30N 49°31' W 002°10'918.8
2019-Apr-20 11:01N 49°23' W 002°16'1018.9
2019-Apr-20 10:30N 49°13' W 002°21'1020.3
2019-Apr-20 10:01N 49°04' W 002°22'1020.5
2019-Apr-20 09:31N 48°54' W 002°19'1020.6
2019-Apr-20 09:01N 48°45' W 002°10'816.9
2019-Apr-20 08:30N 48°38' W 002°02'0 0.1
2019-Apr-20 08:00N 48°38' W 002°02'0 0.0
2019-Apr-20 07:30N 48°38' W 002°02'0 0.0
2019-Apr-20 07:00N 48°38' W 002°02'0 0.0
2019-Apr-20 06:30N 48°38' W 002°02'0 0.2
2019-Apr-20 06:01N 48°38' W 002°02'713.3
2019-Apr-20 05:30N 48°44' W 002°07'816.2
2019-Apr-20 05:00N 48°50' W 002°16'816.1
2019-Apr-20 04:30N 48°57' W 002°22'713.4
2019-Apr-20 04:00N 49°04' W 002°23'1013.9
2019-Apr-20 03:17N 49°14' W 002°22'413.3
2019-Apr-20 03:00N 49°17' W 002°22'713.3
2019-Apr-20 02:31N 49°23' W 002°17'713.9
2019-Apr-20 02:00N 49°29' W 002°11'714.5
2019-Apr-20 01:30N 49°35' W 002°06'1019.9
2019-Apr-20 01:01N 49°45' W 002°00'918.7
2019-Apr-20 00:31N 49°52' W 001°52'917.2
2019-Apr-20 00:01N 49°60' W 001°45'816.4
2019-Apr-19 23:31N 50°06' W 001°38'815.6
2019-Apr-19 23:01N 50°12' W 001°30'715.0
2019-Apr-19 22:30N 50°19' W 001°24'815.0
2019-Apr-19 22:01N 50°26' W 001°19'714.1
2019-Apr-19 21:30N 50°31' W 001°13'713.2
2019-Apr-19 21:00N 50°37' W 001°07'611.8
2019-Apr-19 20:30N 50°42' W 001°03'612.9
2019-Apr-19 20:01N 50°48' W 001°07'1 2.1
2019-Apr-19 19:31N 50°49' W 001°06'0 0.0
2019-Apr-19 19:00N 50°49' W 001°06'0 0.0
2019-Apr-19 18:30N 50°49' W 001°06'0 0.0
2019-Apr-19 18:00N 50°49' W 001°06'1 1.8
2019-Apr-19 17:30N 50°48' W 001°07'5 9.5
2019-Apr-19 17:01N 50°44' W 001°04'612.9
2019-Apr-19 16:30N 50°38' W 001°00'917.8
2019-Apr-19 16:00N 50°32' W 001°10'917.7
2019-Apr-19 15:31N 50°25' W 001°19'917.4
2019-Apr-19 15:00N 50°17' W 001°27'816.5
2019-Apr-19 14:30N 50°11' W 001°35'815.9
2019-Apr-19 14:01N 50°05' W 001°43'816.0
2019-Apr-19 13:31N 49°59' W 001°50'815.9
2019-Apr-19 13:00N 49°52' W 001°57'815.8
2019-Apr-19 12:31N 49°45' W 002°01'713.0
2019-Apr-19 12:00N 49°38' W 002°04'816.6
2019-Apr-19 11:31N 49°31' W 002°10'918.1
2019-Apr-19 11:00N 49°23' W 002°16'918.0
2019-Apr-19 10:31N 49°14' W 002°21'1020.0
2019-Apr-19 10:01N 49°04' W 002°22'1020.6
2019-Apr-19 09:30N 48°54' W 002°20'1121.2
2019-Apr-19 09:01N 48°46' W 002°10'917.8
2019-Apr-19 08:30N 48°38' W 002°02'0 0.2
2019-Apr-19 07:53N 48°38' W 002°02'0 0.0
2019-Apr-19 06:47N 48°38' W 002°02'0 0.0
2019-Apr-19 06:05N 48°38' W 002°02'0 0.4
2019-Apr-19 05:57N 48°38' W 002°02'1114.5
2019-Apr-19 05:12N 48°48' W 002°11'317.1
2019-Apr-19 05:00N 48°50' W 002°15'1116.0
2019-Apr-19 04:18N 48°59' W 002°24'415.6
2019-Apr-19 04:01N 49°04' W 002°23'815.7
2019-Apr-19 03:31N 49°12' W 002°22'713.6
2019-Apr-19 03:00N 49°18' W 002°20'713.0
2019-Apr-19 02:30N 49°24' W 002°16'713.9
2019-Apr-19 02:00N 49°30' W 002°11'714.6
2019-Apr-19 01:30N 49°37' W 002°06'817.0
2019-Apr-19 01:00N 49°45' W 002°01'917.2
2019-Apr-19 00:30N 49°52' W 001°55'917.8
2019-Apr-19 00:00N 49°60' W 001°47'816.9
2019-Apr-18 23:30N 50°07' W 001°41'816.5
2019-Apr-18 23:00N 50°14' W 001°34'816.3
2019-Apr-18 22:30N 50°20' W 001°25'815.6
2019-Apr-18 22:00N 50°27' W 001°18'714.8
2019-Apr-18 21:30N 50°33' W 001°12'713.6
2019-Apr-18 21:01N 50°38' W 001°06'611.4
2019-Apr-18 20:30N 50°44' W 001°04'510.0
2019-Apr-18 20:01N 50°49' W 001°06'0 0.3
2019-Apr-18 19:28N 50°49' W 001°06'0 0.0
2019-Apr-18 18:58N 50°49' W 001°06'0 0.0
2019-Apr-18 18:28N 50°49' W 001°06'0 0.0
2019-Apr-18 17:58N 50°49' W 001°06'1 1.5
2019-Apr-18 17:31N 50°48' W 001°07'612.2
2019-Apr-18 17:01N 50°43' W 001°01'713.1
2019-Apr-18 16:31N 50°37' W 001°03'918.9
2019-Apr-18 16:01N 50°31' W 001°14'918.2
2019-Apr-18 15:30N 50°25' W 001°24'917.8
2019-Apr-18 15:00N 50°18' W 001°33'917.3
2019-Apr-18 14:31N 50°10' W 001°41'816.6
2019-Apr-18 14:00N 50°03' W 001°47'816.3
2019-Apr-18 13:31N 49°56' W 001°53'815.8
2019-Apr-18 13:00N 49°49' W 001°59'714.2
2019-Apr-18 12:30N 49°42' W 002°01'714.2
2019-Apr-18 12:00N 49°36' W 002°05'816.4
2019-Apr-18 11:30N 49°29' W 002°12'917.2
2019-Apr-18 11:00N 49°21' W 002°18'1117.6
2019-Apr-18 10:25N 49°11' W 002°23'819.8
2019-Apr-18 10:00N 49°03' W 002°22'2019.5
2019-Apr-18 08:59N 48°45' W 002°09'8 7.8
2019-Apr-18 07:58N 48°38' W 002°02'0 0.0
2019-Apr-18 06:43N 48°38' W 002°02'0 0.1
2019-Apr-18 06:03N 48°38' W 002°02'0 0.8
2019-Apr-18 06:00N 48°38' W 002°02'1015.1
2019-Apr-18 05:22N 48°47' W 002°09'1813.3
2019-Apr-18 04:03N 49°02' W 002°23'812.9
2019-Apr-18 03:27N 49°09' W 002°23'612.8
2019-Apr-18 03:01N 49°15' W 002°22'612.0
2019-Apr-18 02:30N 49°21' W 002°19'612.9
2019-Apr-18 02:01N 49°26' W 002°14'713.7
2019-Apr-18 01:30N 49°32' W 002°09'714.4
2019-Apr-18 01:00N 49°39' W 002°04'816.5
2019-Apr-18 00:30N 49°46' W 001°59'714.4
2019-Apr-18 00:00N 49°52' W 001°53'713.9
2019-Apr-17 23:31N 49°58' W 001°47'815.6
2019-Apr-17 23:00N 50°05' W 001°41'816.3
2019-Apr-17 22:30N 50°12' W 001°35'816.0
2019-Apr-17 22:00N 50°19' W 001°28'815.5
2019-Apr-17 21:30N 50°25' W 001°21'714.8
2019-Apr-17 21:00N 50°31' W 001°13'714.2
2019-Apr-17 20:30N 50°37' W 001°07'612.0
2019-Apr-17 20:00N 50°42' W 001°03'612.8
2019-Apr-17 19:30N 50°48' W 001°07'1 2.1
2019-Apr-17 18:59N 50°49' W 001°06'0 0.0
2019-Apr-17 18:29N 50°49' W 001°06'0 0.0
2019-Apr-17 17:59N 50°49' W 001°06'0 0.0
2019-Apr-17 17:30N 50°49' W 001°06'0 0.0
2019-Apr-17 17:00N 50°49' W 001°06'0 0.0
2019-Apr-17 16:27N 50°49' W 001°06'0 0.0
2019-Apr-17 16:00N 50°49' W 001°06'0 0.0
2019-Apr-17 15:27N 50°49' W 001°06'0 0.0
2019-Apr-17 15:00N 50°49' W 001°06'0 0.0
2019-Apr-17 14:30N 50°49' W 001°06'0 0.0
2019-Apr-17 14:01N 50°49' W 001°06'0 0.0
2019-Apr-17 13:27N 50°49' W 001°06'0 0.0
2019-Apr-17 13:00N 50°49' W 001°06'0 0.0
2019-Apr-17 12:30N 50°49' W 001°06'0 0.0
2019-Apr-17 12:00N 50°49' W 001°06'0 0.0
2019-Apr-17 11:28N 50°49' W 001°06'0 0.0
2019-Apr-17 10:58N 50°49' W 001°06'0 0.0
2019-Apr-17 10:28N 50°49' W 001°06'0 0.0
2019-Apr-17 09:58N 50°49' W 001°06'0 0.0
2019-Apr-17 09:28N 50°49' W 001°06'0 0.0
2019-Apr-17 08:58N 50°49' W 001°06'0 0.0
2019-Apr-17 08:28N 50°49' W 001°06'0 0.0
2019-Apr-17 07:59N 50°49' W 001°06'0 0.0
2019-Apr-17 07:28N 50°49' W 001°06'0 0.0
2019-Apr-17 06:59N 50°49' W 001°06'1 1.2
2019-Apr-17 06:30N 50°49' W 001°07'611.0
2019-Apr-17 06:00N 50°43' W 001°03'612.3
2019-Apr-17 05:30N 50°38' W 001°07'612.1
2019-Apr-17 05:00N 50°33' W 001°12'611.4
2019-Apr-17 04:30N 50°28' W 001°17'611.2
2019-Apr-17 04:00N 50°23' W 001°22'611.4
2019-Apr-17 03:30N 50°19' W 001°28'611.4
2019-Apr-17 03:00N 50°14' W 001°33'510.8
2019-Apr-17 02:30N 50°10' W 001°38'612.6
2019-Apr-17 02:00N 50°05' W 001°44'713.9
2019-Apr-17 01:30N 49°59' W 001°49'713.5
2019-Apr-17 01:00N 49°53' W 001°54'612.8
2019-Apr-17 00:30N 49°47' W 001°59'611.2
2019-Apr-17 00:00N 49°42' W 002°03'611.6
2019-Apr-16 23:30N 49°37' W 002°06'713.2
2019-Apr-16 23:00N 49°31' W 002°11'713.9
2019-Apr-16 22:30N 49°25' W 002°16'713.6
2019-Apr-16 22:00N 49°19' W 002°21'1211.3
2019-Apr-16 20:59N 49°07' W 002°23'1312.8
2019-Apr-16 19:59N 48°55' W 002°22'1313.0
2019-Apr-16 18:57N 48°44' W 002°09'7 1.2
2019-Apr-16 12:43N 48°38' W 002°02'  

Dump ship's entire track history